sensor_id;sensor_type;location;lat;lon;timestamp;P1;durP1;ratioP1;P2;durP2;ratioP2
6342;SDS011;3204;42.698;23.298;2023-02-18T00:01:59;164.20;;;53.27;;
6342;SDS011;3204;42.698;23.298;2023-02-18T00:04:25;219.87;;;69.07;;
6342;SDS011;3204;42.698;23.298;2023-02-18T00:06:50;201.63;;;61.67;;
6342;SDS011;3204;42.698;23.298;2023-02-18T00:09:16;236.33;;;70.93;;
6342;SDS011;3204;42.698;23.298;2023-02-18T00:11:41;208.97;;;64.90;;
6342;SDS011;3204;42.698;23.298;2023-02-18T00:14:09;162.87;;;51.97;;
6342;SDS011;3204;42.698;23.298;2023-02-18T00:16:37;141.80;;;49.87;;
6342;SDS011;3204;42.698;23.298;2023-02-18T00:19:04;162.40;;;52.83;;
6342;SDS011;3204;42.698;23.298;2023-02-18T00:21:31;145.37;;;48.90;;
6342;SDS011;3204;42.698;23.298;2023-02-18T00:23:58;139.17;;;50.63;;
6342;SDS011;3204;42.698;23.298;2023-02-18T00:26:24;225.07;;;69.67;;
6342;SDS011;3204;42.698;23.298;2023-02-18T00:28:50;231.47;;;72.13;;
6342;SDS011;3204;42.698;23.298;2023-02-18T00:31:26;92.77;;;36.77;;
6342;SDS011;3204;42.698;23.298;2023-02-18T00:33:53;125.63;;;45.17;;
6342;SDS011;3204;42.698;23.298;2023-02-18T00:36:19;86.03;;;33.97;;
6342;SDS011;3204;42.698;23.298;2023-02-18T00:38:49;74.27;;;29.47;;
6342;SDS011;3204;42.698;23.298;2023-02-18T00:41:16;87.20;;;33.63;;
6342;SDS011;3204;42.698;23.298;2023-02-18T00:43:42;93.97;;;37.77;;
6342;SDS011;3204;42.698;23.298;2023-02-18T00:46:08;96.73;;;39.63;;
6342;SDS011;3204;42.698;23.298;2023-02-18T00:48:34;61.43;;;27.67;;
6342;SDS011;3204;42.698;23.298;2023-02-18T00:51:00;64.17;;;29.37;;
6342;SDS011;3204;42.698;23.298;2023-02-18T00:53:27;56.10;;;27.53;;
6342;SDS011;3204;42.698;23.298;2023-02-18T00:55:53;60.83;;;27.10;;
6342;SDS011;3204;42.698;23.298;2023-02-18T00:58:19;45.30;;;23.67;;
6342;SDS011;3204;42.698;23.298;2023-02-18T01:00:45;46.60;;;22.67;;
6342;SDS011;3204;42.698;23.298;2023-02-18T01:03:11;39.90;;;22.77;;
6342;SDS011;3204;42.698;23.298;2023-02-18T01:05:37;42.00;;;22.77;;
6342;SDS011;3204;42.698;23.298;2023-02-18T01:08:04;44.80;;;22.50;;
6342;SDS011;3204;42.698;23.298;2023-02-18T01:10:30;50.10;;;23.97;;
6342;SDS011;3204;42.698;23.298;2023-02-18T01:12:55;34.33;;;20.20;;
6342;SDS011;3204;42.698;23.298;2023-02-18T01:15:21;34.03;;;19.10;;
6342;SDS011;3204;42.698;23.298;2023-02-18T01:17:47;35.93;;;19.73;;
6342;SDS011;3204;42.698;23.298;2023-02-18T01:20:13;37.13;;;19.70;;
6342;SDS011;3204;42.698;23.298;2023-02-18T01:22:39;34.70;;;18.77;;
6342;SDS011;3204;42.698;23.298;2023-02-18T01:25:06;31.00;;;18.33;;
6342;SDS011;3204;42.698;23.298;2023-02-18T01:27:33;34.30;;;20.23;;
6342;SDS011;3204;42.698;23.298;2023-02-18T01:29:58;34.33;;;19.37;;
6342;SDS011;3204;42.698;23.298;2023-02-18T01:32:24;35.27;;;20.43;;
6342;SDS011;3204;42.698;23.298;2023-02-18T01:34:49;34.97;;;21.27;;
6342;SDS011;3204;42.698;23.298;2023-02-18T01:37:15;30.47;;;19.30;;
6342;SDS011;3204;42.698;23.298;2023-02-18T01:39:40;32.97;;;20.10;;
6342;SDS011;3204;42.698;23.298;2023-02-18T01:42:05;30.33;;;19.03;;
6342;SDS011;3204;42.698;23.298;2023-02-18T01:44:32;32.57;;;19.87;;
6342;SDS011;3204;42.698;23.298;2023-02-18T01:46:58;38.33;;;20.57;;
6342;SDS011;3204;42.698;23.298;2023-02-18T01:49:30;34.97;;;19.87;;
6342;SDS011;3204;42.698;23.298;2023-02-18T01:51:59;33.87;;;19.47;;
6342;SDS011;3204;42.698;23.298;2023-02-18T01:54:28;33.20;;;17.93;;
6342;SDS011;3204;42.698;23.298;2023-02-18T01:59:39;30.00;;;18.60;;
6342;SDS011;3204;42.698;23.298;2023-02-18T02:02:12;33.10;;;18.97;;
6342;SDS011;3204;42.698;23.298;2023-02-18T02:04:44;32.23;;;19.23;;
6342;SDS011;3204;42.698;23.298;2023-02-18T02:07:10;35.70;;;19.60;;
6342;SDS011;3204;42.698;23.298;2023-02-18T02:09:36;29.30;;;18.30;;
6342;SDS011;3204;42.698;23.298;2023-02-18T02:15:00;47.97;;;22.33;;
6342;SDS011;3204;42.698;23.298;2023-02-18T02:25:16;33.57;;;18.93;;
6342;SDS011;3204;42.698;23.298;2023-02-18T02:33:55;31.53;;;18.17;;
6342;SDS011;3204;42.698;23.298;2023-02-18T02:39:59;44.80;;;22.17;;
6342;SDS011;3204;42.698;23.298;2023-02-18T02:51:34;42.30;;;21.43;;
6342;SDS011;3204;42.698;23.298;2023-02-18T02:54:13;53.33;;;23.73;;
6342;SDS011;3204;42.698;23.298;2023-02-18T02:56:41;52.23;;;23.83;;
6342;SDS011;3204;42.698;23.298;2023-02-18T02:59:08;55.67;;;24.83;;
6342;SDS011;3204;42.698;23.298;2023-02-18T03:01:51;60.93;;;26.33;;
6342;SDS011;3204;42.698;23.298;2023-02-18T03:07:10;54.40;;;24.93;;
6342;SDS011;3204;42.698;23.298;2023-02-18T03:17:36;61.20;;;26.27;;
6342;SDS011;3204;42.698;23.298;2023-02-18T03:20:12;78.03;;;28.43;;
6342;SDS011;3204;42.698;23.298;2023-02-18T03:22:45;71.77;;;29.27;;
6342;SDS011;3204;42.698;23.298;2023-02-18T03:25:12;74.93;;;30.47;;
6342;SDS011;3204;42.698;23.298;2023-02-18T03:27:42;88.07;;;34.50;;
6342;SDS011;3204;42.698;23.298;2023-02-18T03:30:15;92.10;;;35.87;;
6342;SDS011;3204;42.698;23.298;2023-02-18T03:32:45;96.07;;;34.07;;
6342;SDS011;3204;42.698;23.298;2023-02-18T03:35:16;78.60;;;32.20;;
6342;SDS011;3204;42.698;23.298;2023-02-18T03:37:47;80.77;;;32.60;;
6342;SDS011;3204;42.698;23.298;2023-02-18T03:40:17;79.67;;;32.00;;
6342;SDS011;3204;42.698;23.298;2023-02-18T03:42:43;64.40;;;28.17;;
6342;SDS011;3204;42.698;23.298;2023-02-18T03:45:09;72.93;;;27.77;;
6342;SDS011;3204;42.698;23.298;2023-02-18T03:47:34;61.17;;;27.57;;
6342;SDS011;3204;42.698;23.298;2023-02-18T03:50:01;115.17;;;39.50;;
6342;SDS011;3204;42.698;23.298;2023-02-18T03:52:27;75.10;;;29.70;;
6342;SDS011;3204;42.698;23.298;2023-02-18T03:54:53;81.93;;;31.37;;
6342;SDS011;3204;42.698;23.298;2023-02-18T03:57:18;100.60;;;34.97;;
6342;SDS011;3204;42.698;23.298;2023-02-18T03:59:44;56.33;;;26.30;;
6342;SDS011;3204;42.698;23.298;2023-02-18T04:02:09;52.57;;;26.33;;
6342;SDS011;3204;42.698;23.298;2023-02-18T04:04:35;67.40;;;30.13;;
6342;SDS011;3204;42.698;23.298;2023-02-18T04:07:00;43.37;;;20.80;;
6342;SDS011;3204;42.698;23.298;2023-02-18T04:09:26;38.33;;;19.80;;
6342;SDS011;3204;42.698;23.298;2023-02-18T04:11:51;41.30;;;21.37;;
6342;SDS011;3204;42.698;23.298;2023-02-18T04:14:17;45.80;;;22.10;;
6342;SDS011;3204;42.698;23.298;2023-02-18T04:16:42;40.70;;;20.80;;
6342;SDS011;3204;42.698;23.298;2023-02-18T04:19:08;34.70;;;20.63;;
6342;SDS011;3204;42.698;23.298;2023-02-18T04:21:33;36.77;;;22.03;;
6342;SDS011;3204;42.698;23.298;2023-02-18T04:23:59;46.33;;;21.80;;
6342;SDS011;3204;42.698;23.298;2023-02-18T04:26:25;43.73;;;22.83;;
6342;SDS011;3204;42.698;23.298;2023-02-18T04:28:51;50.00;;;23.60;;
6342;SDS011;3204;42.698;23.298;2023-02-18T04:31:16;51.27;;;26.80;;
6342;SDS011;3204;42.698;23.298;2023-02-18T04:33:42;53.67;;;24.27;;
6342;SDS011;3204;42.698;23.298;2023-02-18T04:36:08;46.17;;;22.37;;
6342;SDS011;3204;42.698;23.298;2023-02-18T04:38:34;45.03;;;23.33;;
6342;SDS011;3204;42.698;23.298;2023-02-18T04:40:59;43.40;;;23.47;;
6342;SDS011;3204;42.698;23.298;2023-02-18T04:43:24;45.90;;;23.90;;
6342;SDS011;3204;42.698;23.298;2023-02-18T04:45:50;46.90;;;25.40;;
6342;SDS011;3204;42.698;23.298;2023-02-18T04:48:15;49.27;;;23.40;;
6342;SDS011;3204;42.698;23.298;2023-02-18T04:50:42;46.83;;;24.13;;
6342;SDS011;3204;42.698;23.298;2023-02-18T04:53:08;46.53;;;27.20;;
6342;SDS011;3204;42.698;23.298;2023-02-18T04:55:33;57.33;;;27.87;;
6342;SDS011;3204;42.698;23.298;2023-02-18T04:57:59;62.50;;;27.50;;
6342;SDS011;3204;42.698;23.298;2023-02-18T05:00:24;48.07;;;25.50;;
6342;SDS011;3204;42.698;23.298;2023-02-18T05:02:50;45.87;;;24.37;;
6342;SDS011;3204;42.698;23.298;2023-02-18T05:05:16;43.63;;;25.07;;
6342;SDS011;3204;42.698;23.298;2023-02-18T05:07:41;53.23;;;25.57;;
6342;SDS011;3204;42.698;23.298;2023-02-18T05:10:08;49.67;;;25.80;;
6342;SDS011;3204;42.698;23.298;2023-02-18T05:12:35;55.83;;;25.70;;
6342;SDS011;3204;42.698;23.298;2023-02-18T05:15:00;62.27;;;25.67;;
6342;SDS011;3204;42.698;23.298;2023-02-18T05:17:26;55.93;;;26.33;;
6342;SDS011;3204;42.698;23.298;2023-02-18T05:19:52;59.23;;;28.20;;
6342;SDS011;3204;42.698;23.298;2023-02-18T05:22:17;73.00;;;30.77;;
6342;SDS011;3204;42.698;23.298;2023-02-18T05:24:43;60.83;;;30.40;;
6342;SDS011;3204;42.698;23.298;2023-02-18T05:27:08;52.83;;;26.13;;
6342;SDS011;3204;42.698;23.298;2023-02-18T05:29:33;51.77;;;27.30;;
6342;SDS011;3204;42.698;23.298;2023-02-18T05:31:59;59.70;;;27.90;;
6342;SDS011;3204;42.698;23.298;2023-02-18T05:34:24;55.13;;;27.20;;
6342;SDS011;3204;42.698;23.298;2023-02-18T05:36:50;53.60;;;26.07;;
6342;SDS011;3204;42.698;23.298;2023-02-18T05:39:15;47.17;;;24.73;;
6342;SDS011;3204;42.698;23.298;2023-02-18T05:41:41;50.10;;;25.43;;
6342;SDS011;3204;42.698;23.298;2023-02-18T05:44:06;52.47;;;25.77;;
6342;SDS011;3204;42.698;23.298;2023-02-18T05:46:50;47.20;;;25.33;;
6342;SDS011;3204;42.698;23.298;2023-02-18T05:49:16;52.27;;;26.10;;
6342;SDS011;3204;42.698;23.298;2023-02-18T05:51:41;45.57;;;24.47;;
6342;SDS011;3204;42.698;23.298;2023-02-18T05:54:06;48.93;;;24.23;;
6342;SDS011;3204;42.698;23.298;2023-02-18T05:56:32;44.17;;;24.33;;
6342;SDS011;3204;42.698;23.298;2023-02-18T05:58:57;53.13;;;24.17;;
6342;SDS011;3204;42.698;23.298;2023-02-18T06:01:23;64.43;;;25.43;;
6342;SDS011;3204;42.698;23.298;2023-02-18T06:03:48;52.27;;;25.87;;
6342;SDS011;3204;42.698;23.298;2023-02-18T06:06:14;59.10;;;26.47;;
6342;SDS011;3204;42.698;23.298;2023-02-18T06:08:39;47.43;;;24.33;;
6342;SDS011;3204;42.698;23.298;2023-02-18T06:11:05;65.73;;;29.90;;
6342;SDS011;3204;42.698;23.298;2023-02-18T06:13:30;219.10;;;78.13;;
6342;SDS011;3204;42.698;23.298;2023-02-18T06:15:56;117.70;;;41.87;;
6342;SDS011;3204;42.698;23.298;2023-02-18T06:18:22;169.77;;;52.83;;
6342;SDS011;3204;42.698;23.298;2023-02-18T06:20:47;195.07;;;68.47;;
6342;SDS011;3204;42.698;23.298;2023-02-18T06:23:13;155.47;;;62.60;;
6342;SDS011;3204;42.698;23.298;2023-02-18T06:25:39;118.57;;;47.67;;
6342;SDS011;3204;42.698;23.298;2023-02-18T06:28:05;121.17;;;49.77;;
6342;SDS011;3204;42.698;23.298;2023-02-18T06:30:31;121.40;;;47.47;;
6342;SDS011;3204;42.698;23.298;2023-02-18T06:32:56;83.97;;;36.17;;
6342;SDS011;3204;42.698;23.298;2023-02-18T06:35:21;90.97;;;36.17;;
6342;SDS011;3204;42.698;23.298;2023-02-18T06:37:47;75.60;;;32.80;;
6342;SDS011;3204;42.698;23.298;2023-02-18T06:40:12;73.20;;;31.43;;
6342;SDS011;3204;42.698;23.298;2023-02-18T06:42:38;60.40;;;28.30;;
6342;SDS011;3204;42.698;23.298;2023-02-18T06:45:03;63.00;;;27.73;;
6342;SDS011;3204;42.698;23.298;2023-02-18T06:47:30;58.83;;;27.40;;
6342;SDS011;3204;42.698;23.298;2023-02-18T06:49:56;57.53;;;24.60;;
6342;SDS011;3204;42.698;23.298;2023-02-18T06:52:22;47.70;;;23.57;;
6342;SDS011;3204;42.698;23.298;2023-02-18T06:54:47;49.10;;;24.33;;
6342;SDS011;3204;42.698;23.298;2023-02-18T06:57:13;55.37;;;23.27;;
6342;SDS011;3204;42.698;23.298;2023-02-18T06:59:38;40.00;;;23.67;;
6342;SDS011;3204;42.698;23.298;2023-02-18T07:02:03;55.43;;;22.93;;
6342;SDS011;3204;42.698;23.298;2023-02-18T07:04:29;48.50;;;23.13;;
6342;SDS011;3204;42.698;23.298;2023-02-18T07:06:54;50.00;;;23.77;;
6342;SDS011;3204;42.698;23.298;2023-02-18T07:09:20;44.50;;;23.10;;
6342;SDS011;3204;42.698;23.298;2023-02-18T07:11:45;47.80;;;23.20;;
6342;SDS011;3204;42.698;23.298;2023-02-18T07:14:11;42.00;;;22.07;;
6342;SDS011;3204;42.698;23.298;2023-02-18T07:16:36;51.07;;;22.87;;
6342;SDS011;3204;42.698;23.298;2023-02-18T07:19:01;46.47;;;23.03;;
6342;SDS011;3204;42.698;23.298;2023-02-18T07:21:27;61.07;;;22.87;;
6342;SDS011;3204;42.698;23.298;2023-02-18T07:23:53;44.00;;;21.80;;
6342;SDS011;3204;42.698;23.298;2023-02-18T07:26:18;43.33;;;21.20;;
6342;SDS011;3204;42.698;23.298;2023-02-18T07:28:43;34.87;;;19.83;;
6342;SDS011;3204;42.698;23.298;2023-02-18T07:31:09;37.70;;;21.00;;
6342;SDS011;3204;42.698;23.298;2023-02-18T07:33:34;26.70;;;15.40;;
6342;SDS011;3204;42.698;23.298;2023-02-18T07:36:00;42.77;;;20.97;;
6342;SDS011;3204;42.698;23.298;2023-02-18T07:38:27;48.00;;;22.53;;
6342;SDS011;3204;42.698;23.298;2023-02-18T07:40:53;42.70;;;22.73;;
6342;SDS011;3204;42.698;23.298;2023-02-18T07:43:19;44.20;;;22.13;;
6342;SDS011;3204;42.698;23.298;2023-02-18T07:45:45;42.80;;;21.60;;
6342;SDS011;3204;42.698;23.298;2023-02-18T07:48:10;42.93;;;22.00;;
6342;SDS011;3204;42.698;23.298;2023-02-18T07:50:40;43.93;;;20.73;;
6342;SDS011;3204;42.698;23.298;2023-02-18T07:53:07;43.53;;;21.13;;
6342;SDS011;3204;42.698;23.298;2023-02-18T07:55:33;39.93;;;21.23;;
6342;SDS011;3204;42.698;23.298;2023-02-18T07:58:15;40.30;;;22.67;;
6342;SDS011;3204;42.698;23.298;2023-02-18T08:00:44;40.63;;;19.93;;
6342;SDS011;3204;42.698;23.298;2023-02-18T08:03:12;47.03;;;23.37;;
6342;SDS011;3204;42.698;23.298;2023-02-18T08:05:38;44.93;;;21.30;;
6342;SDS011;3204;42.698;23.298;2023-02-18T08:08:04;44.87;;;23.73;;
6342;SDS011;3204;42.698;23.298;2023-02-18T08:10:29;45.63;;;22.27;;
6342;SDS011;3204;42.698;23.298;2023-02-18T08:12:55;42.93;;;22.20;;
6342;SDS011;3204;42.698;23.298;2023-02-18T08:15:20;36.00;;;21.93;;
6342;SDS011;3204;42.698;23.298;2023-02-18T08:17:46;36.97;;;21.33;;
6342;SDS011;3204;42.698;23.298;2023-02-18T08:20:11;40.23;;;22.27;;
6342;SDS011;3204;42.698;23.298;2023-02-18T08:22:37;46.70;;;23.23;;
6342;SDS011;3204;42.698;23.298;2023-02-18T08:25:03;46.77;;;22.10;;
6342;SDS011;3204;42.698;23.298;2023-02-18T08:27:28;51.43;;;25.00;;
6342;SDS011;3204;42.698;23.298;2023-02-18T08:29:54;39.80;;;22.17;;
6342;SDS011;3204;42.698;23.298;2023-02-18T08:32:20;64.20;;;28.40;;
6342;SDS011;3204;42.698;23.298;2023-02-18T08:34:45;73.70;;;30.83;;
6342;SDS011;3204;42.698;23.298;2023-02-18T08:37:11;48.80;;;24.67;;
6342;SDS011;3204;42.698;23.298;2023-02-18T08:39:37;44.37;;;21.00;;
6342;SDS011;3204;42.698;23.298;2023-02-18T08:42:03;44.63;;;21.33;;
6342;SDS011;3204;42.698;23.298;2023-02-18T08:44:29;44.40;;;20.23;;
6342;SDS011;3204;42.698;23.298;2023-02-18T08:46:54;39.83;;;19.27;;
6342;SDS011;3204;42.698;23.298;2023-02-18T08:49:20;39.20;;;20.00;;
6342;SDS011;3204;42.698;23.298;2023-02-18T08:51:48;34.23;;;19.23;;
6342;SDS011;3204;42.698;23.298;2023-02-18T08:54:14;35.30;;;19.43;;
6342;SDS011;3204;42.698;23.298;2023-02-18T08:56:40;36.37;;;19.80;;
6342;SDS011;3204;42.698;23.298;2023-02-18T08:59:06;31.73;;;17.23;;
6342;SDS011;3204;42.698;23.298;2023-02-18T09:01:31;22.77;;;14.43;;
6342;SDS011;3204;42.698;23.298;2023-02-18T09:03:57;26.07;;;13.30;;
6342;SDS011;3204;42.698;23.298;2023-02-18T09:06:23;20.00;;;12.63;;
6342;SDS011;3204;42.698;23.298;2023-02-18T09:08:48;23.20;;;11.50;;
6342;SDS011;3204;42.698;23.298;2023-02-18T09:11:15;15.10;;;10.53;;
6342;SDS011;3204;42.698;23.298;2023-02-18T09:13:40;21.73;;;10.47;;
6342;SDS011;3204;42.698;23.298;2023-02-18T09:16:07;16.43;;;9.70;;
6342;SDS011;3204;42.698;23.298;2023-02-18T09:18:44;18.70;;;10.60;;
6342;SDS011;3204;42.698;23.298;2023-02-18T09:21:10;16.40;;;10.75;;
6342;SDS011;3204;42.698;23.298;2023-02-18T09:23:37;36.90;;;20.42;;
6342;SDS011;3204;42.698;23.298;2023-02-18T09:26:07;17.40;;;11.30;;
6342;SDS011;3204;42.698;23.298;2023-02-18T09:28:35;18.25;;;12.15;;
6342;SDS011;3204;42.698;23.298;2023-02-18T09:31:04;20.63;;;11.85;;
6342;SDS011;3204;42.698;23.298;2023-02-18T09:33:33;16.90;;;10.70;;
6342;SDS011;3204;42.698;23.298;2023-02-18T09:36:01;16.60;;;11.05;;
6342;SDS011;3204;42.698;23.298;2023-02-18T09:38:26;17.45;;;11.82;;
6342;SDS011;3204;42.698;23.298;2023-02-18T09:40:52;21.58;;;12.45;;
6342;SDS011;3204;42.698;23.298;2023-02-18T09:45:58;20.85;;;10.65;;
6342;SDS011;3204;42.698;23.298;2023-02-18T09:48:26;17.80;;;11.02;;
6342;SDS011;3204;42.698;23.298;2023-02-18T09:50:55;14.77;;;11.38;;
6342;SDS011;3204;42.698;23.298;2023-02-18T09:53:22;12.07;;;10.80;;
6342;SDS011;3204;42.698;23.298;2023-02-18T09:55:48;14.88;;;10.85;;
6342;SDS011;3204;42.698;23.298;2023-02-18T09:58:18;16.08;;;11.40;;
6342;SDS011;3204;42.698;23.298;2023-02-18T10:01:23;16.77;;;11.00;;
6342;SDS011;3204;42.698;23.298;2023-02-18T10:03:47;18.95;;;10.32;;
6342;SDS011;3204;42.698;23.298;2023-02-18T10:06:21;17.08;;;10.85;;
6342;SDS011;3204;42.698;23.298;2023-02-18T10:08:50;15.98;;;12.02;;
6342;SDS011;3204;42.698;23.298;2023-02-18T10:11:51;11.88;;;9.77;;
6342;SDS011;3204;42.698;23.298;2023-02-18T10:14:12;14.13;;;7.80;;
6342;SDS011;3204;42.698;23.298;2023-02-18T10:16:39;11.65;;;7.65;;
6342;SDS011;3204;42.698;23.298;2023-02-18T10:19:19;10.80;;;7.85;;
6342;SDS011;3204;42.698;23.298;2023-02-18T10:21:44;13.00;;;8.27;;
6342;SDS011;3204;42.698;23.298;2023-02-18T10:24:14;10.88;;;7.82;;
6342;SDS011;3204;42.698;23.298;2023-02-18T10:26:43;7.40;;;6.70;;
6342;SDS011;3204;42.698;23.298;2023-02-18T10:29:16;7.80;;;6.97;;
6342;SDS011;3204;42.698;23.298;2023-02-18T10:32:45;7.45;;;6.85;;
6342;SDS011;3204;42.698;23.298;2023-02-18T10:34:52;8.23;;;5.95;;
6342;SDS011;3204;42.698;23.298;2023-02-18T10:37:27;8.57;;;6.35;;
6342;SDS011;3204;42.698;23.298;2023-02-18T10:47:38;12.60;;;6.78;;
6342;SDS011;3204;42.698;23.298;2023-02-18T10:50:25;10.05;;;5.55;;
6342;SDS011;3204;42.698;23.298;2023-02-18T10:52:55;6.18;;;5.30;;
6342;SDS011;3204;42.698;23.298;2023-02-18T10:55:37;5.40;;;5.00;;
6342;SDS011;3204;42.698;23.298;2023-02-18T11:00:53;19.50;;;10.98;;
6342;SDS011;3204;42.698;23.298;2023-02-18T11:03:23;20.38;;;11.70;;
6342;SDS011;3204;42.698;23.298;2023-02-18T11:05:56;8.45;;;7.43;;
6342;SDS011;3204;42.698;23.298;2023-02-18T11:08:24;9.57;;;6.25;;
6342;SDS011;3204;42.698;23.298;2023-02-18T11:10:52;12.73;;;7.50;;
6342;SDS011;3204;42.698;23.298;2023-02-18T11:13:25;11.23;;;6.20;;
6342;SDS011;3204;42.698;23.298;2023-02-18T11:15:57;5.32;;;4.78;;
6342;SDS011;3204;42.698;23.298;2023-02-18T11:20:57;10.45;;;5.00;;
6342;SDS011;3204;42.698;23.298;2023-02-18T11:23:25;6.85;;;5.13;;
6342;SDS011;3204;42.698;23.298;2023-02-18T11:25:55;4.88;;;4.43;;
6342;SDS011;3204;42.698;23.298;2023-02-18T11:30:55;6.20;;;5.43;;
6342;SDS011;3204;42.698;23.298;2023-02-18T11:33:31;6.93;;;5.13;;
6342;SDS011;3204;42.698;23.298;2023-02-18T11:36:03;8.10;;;4.82;;
6342;SDS011;3204;42.698;23.298;2023-02-18T11:38:51;7.80;;;5.68;;
6342;SDS011;3204;42.698;23.298;2023-02-18T11:41:20;5.72;;;5.32;;
6342;SDS011;3204;42.698;23.298;2023-02-18T11:43:54;5.53;;;5.13;;
6342;SDS011;3204;42.698;23.298;2023-02-18T11:46:22;6.72;;;5.40;;
6342;SDS011;3204;42.698;23.298;2023-02-18T11:48:49;6.47;;;5.90;;
6342;SDS011;3204;42.698;23.298;2023-02-18T11:51:25;8.80;;;5.35;;
6342;SDS011;3204;42.698;23.298;2023-02-18T11:53:54;6.47;;;5.88;;
6342;SDS011;3204;42.698;23.298;2023-02-18T11:56:29;5.88;;;5.47;;
6342;SDS011;3204;42.698;23.298;2023-02-18T11:58:59;10.30;;;5.88;;
6342;SDS011;3204;42.698;23.298;2023-02-18T12:01:43;6.28;;;5.20;;
6342;SDS011;3204;42.698;23.298;2023-02-18T12:04:15;6.18;;;5.55;;
6342;SDS011;3204;42.698;23.298;2023-02-18T12:11:42;8.13;;;5.32;;
6342;SDS011;3204;42.698;23.298;2023-02-18T12:14:16;19.55;;;5.22;;
6342;SDS011;3204;42.698;23.298;2023-02-18T12:28:06;6.22;;;5.68;;
6342;SDS011;3204;42.698;23.298;2023-02-18T12:47:09;6.75;;;4.95;;
6342;SDS011;3204;42.698;23.298;2023-02-18T13:00:58;6.10;;;5.55;;
6342;SDS011;3204;42.698;23.298;2023-02-18T13:14:58;6.68;;;5.85;;
6342;SDS011;3204;42.698;23.298;2023-02-18T13:17:28;8.85;;;5.82;;
6342;SDS011;3204;42.698;23.298;2023-02-18T13:19:58;6.47;;;5.30;;
6342;SDS011;3204;42.698;23.298;2023-02-18T13:22:37;6.72;;;5.40;;
6342;SDS011;3204;42.698;23.298;2023-02-18T13:25:03;6.13;;;5.47;;
6342;SDS011;3204;42.698;23.298;2023-02-18T13:33:03;7.07;;;5.88;;
6342;SDS011;3204;42.698;23.298;2023-02-18T13:39:07;6.68;;;5.43;;
6342;SDS011;3204;42.698;23.298;2023-02-18T13:41:38;6.00;;;5.65;;
6342;SDS011;3204;42.698;23.298;2023-02-18T13:44:06;6.13;;;5.55;;
6342;SDS011;3204;42.698;23.298;2023-02-18T13:46:41;6.63;;;5.90;;
6342;SDS011;3204;42.698;23.298;2023-02-18T13:49:20;9.32;;;5.60;;
6342;SDS011;3204;42.698;23.298;2023-02-18T13:51:48;6.45;;;5.80;;
6342;SDS011;3204;42.698;23.298;2023-02-18T14:01:51;5.75;;;5.18;;
6342;SDS011;3204;42.698;23.298;2023-02-18T14:09:51;8.20;;;5.47;;
6342;SDS011;3204;42.698;23.298;2023-02-18T14:17:42;8.05;;;5.43;;
6342;SDS011;3204;42.698;23.298;2023-02-18T14:20:32;6.00;;;5.28;;
6342;SDS011;3204;42.698;23.298;2023-02-18T14:23:37;6.53;;;5.57;;
6342;SDS011;3204;42.698;23.298;2023-02-18T14:28:44;6.50;;;5.72;;
6342;SDS011;3204;42.698;23.298;2023-02-18T14:36:29;15.85;;;6.20;;
6342;SDS011;3204;42.698;23.298;2023-02-18T14:42:21;5.68;;;5.28;;
6342;SDS011;3204;42.698;23.298;2023-02-18T14:45:08;6.68;;;6.13;;
6342;SDS011;3204;42.698;23.298;2023-02-18T14:51:00;6.32;;;5.82;;
6342;SDS011;3204;42.698;23.298;2023-02-18T14:53:26;6.43;;;5.05;;
6342;SDS011;3204;42.698;23.298;2023-02-18T14:55:53;7.35;;;6.60;;
6342;SDS011;3204;42.698;23.298;2023-02-18T14:58:37;9.77;;;5.68;;
6342;SDS011;3204;42.698;23.298;2023-02-18T15:01:06;5.38;;;5.05;;
6342;SDS011;3204;42.698;23.298;2023-02-18T15:03:43;6.88;;;6.28;;
6342;SDS011;3204;42.698;23.298;2023-02-18T15:06:28;11.02;;;5.55;;
6342;SDS011;3204;42.698;23.298;2023-02-18T15:09:02;7.25;;;5.50;;
6342;SDS011;3204;42.698;23.298;2023-02-18T15:11:38;10.00;;;5.38;;
6342;SDS011;3204;42.698;23.298;2023-02-18T15:14:21;6.25;;;5.82;;
6342;SDS011;3204;42.698;23.298;2023-02-18T15:16:50;7.30;;;5.45;;
6342;SDS011;3204;42.698;23.298;2023-02-18T15:19:20;6.68;;;6.07;;
6342;SDS011;3204;42.698;23.298;2023-02-18T15:21:49;7.22;;;6.53;;
6342;SDS011;3204;42.698;23.298;2023-02-18T15:24:34;6.18;;;5.78;;
6342;SDS011;3204;42.698;23.298;2023-02-18T15:27:02;10.30;;;7.95;;
6342;SDS011;3204;42.698;23.298;2023-02-18T15:29:35;10.90;;;7.63;;
6342;SDS011;3204;42.698;23.298;2023-02-18T15:32:05;13.30;;;7.15;;
6342;SDS011;3204;42.698;23.298;2023-02-18T15:34:41;7.25;;;6.70;;
6342;SDS011;3204;42.698;23.298;2023-02-18T15:37:11;6.32;;;5.80;;
6342;SDS011;3204;42.698;23.298;2023-02-18T15:39:39;6.90;;;6.22;;
6342;SDS011;3204;42.698;23.298;2023-02-18T15:42:12;10.15;;;6.97;;
6342;SDS011;3204;42.698;23.298;2023-02-18T15:44:52;9.93;;;6.40;;
6342;SDS011;3204;42.698;23.298;2023-02-18T15:47:20;9.40;;;6.85;;
6342;SDS011;3204;42.698;23.298;2023-02-18T15:49:51;7.93;;;6.93;;
6342;SDS011;3204;42.698;23.298;2023-02-18T15:52:25;7.43;;;6.57;;
6342;SDS011;3204;42.698;23.298;2023-02-18T15:54:54;9.00;;;7.10;;
6342;SDS011;3204;42.698;23.298;2023-02-18T15:57:25;14.20;;;7.63;;
6342;SDS011;3204;42.698;23.298;2023-02-18T15:59:54;7.35;;;6.65;;
6342;SDS011;3204;42.698;23.298;2023-02-18T16:02:28;12.80;;;7.50;;
6342;SDS011;3204;42.698;23.298;2023-02-18T16:04:57;8.35;;;7.30;;
6342;SDS011;3204;42.698;23.298;2023-02-18T16:10:14;8.27;;;7.13;;
6342;SDS011;3204;42.698;23.298;2023-02-18T16:12:45;8.15;;;7.35;;
6342;SDS011;3204;42.698;23.298;2023-02-18T16:15:15;10.63;;;7.97;;
6342;SDS011;3204;42.698;23.298;2023-02-18T16:17:48;10.35;;;8.30;;
6342;SDS011;3204;42.698;23.298;2023-02-18T16:20:16;11.68;;;7.93;;
6342;SDS011;3204;42.698;23.298;2023-02-18T16:22:50;10.73;;;8.02;;
6342;SDS011;3204;42.698;23.298;2023-02-18T16:30:15;9.27;;;7.88;;
6342;SDS011;3204;42.698;23.298;2023-02-18T16:32:45;13.75;;;8.57;;
6342;SDS011;3204;42.698;23.298;2023-02-18T16:35:11;14.60;;;9.07;;
6342;SDS011;3204;42.698;23.298;2023-02-18T16:37:37;12.60;;;9.23;;
6342;SDS011;3204;42.698;23.298;2023-02-18T16:40:15;11.00;;;8.57;;
6342;SDS011;3204;42.698;23.298;2023-02-18T16:42:47;14.18;;;9.93;;
6342;SDS011;3204;42.698;23.298;2023-02-18T16:45:13;9.35;;;8.55;;
6342;SDS011;3204;42.698;23.298;2023-02-18T16:47:39;10.07;;;8.85;;
6342;SDS011;3204;42.698;23.298;2023-02-18T16:50:19;15.55;;;9.60;;
6342;SDS011;3204;42.698;23.298;2023-02-18T16:52:46;17.30;;;10.50;;
6342;SDS011;3204;42.698;23.298;2023-02-18T16:55:22;18.80;;;10.57;;
6342;SDS011;3204;42.698;23.298;2023-02-18T16:57:50;20.15;;;12.55;;
6342;SDS011;3204;42.698;23.298;2023-02-18T17:00:15;16.13;;;12.68;;
6342;SDS011;3204;42.698;23.298;2023-02-18T17:02:43;25.13;;;13.65;;
6342;SDS011;3204;42.698;23.298;2023-02-18T17:05:16;19.60;;;12.93;;
6342;SDS011;3204;42.698;23.298;2023-02-18T17:07:50;17.83;;;11.88;;
6342;SDS011;3204;42.698;23.298;2023-02-18T17:10:15;17.23;;;11.38;;
6342;SDS011;3204;42.698;23.298;2023-02-18T17:12:41;28.33;;;11.70;;
6342;SDS011;3204;42.698;23.298;2023-02-18T17:15:28;15.38;;;11.48;;
6342;SDS011;3204;42.698;23.298;2023-02-18T17:17:55;12.82;;;11.43;;
6342;SDS011;3204;42.698;23.298;2023-02-18T17:20:23;14.27;;;10.68;;
6342;SDS011;3204;42.698;23.298;2023-02-18T17:22:53;16.58;;;11.68;;
6342;SDS011;3204;42.698;23.298;2023-02-18T17:25:21;14.55;;;11.85;;
6342;SDS011;3204;42.698;23.298;2023-02-18T17:27:52;10.00;;;8.82;;
6342;SDS011;3204;42.698;23.298;2023-02-18T17:30:18;10.98;;;8.45;;
6342;SDS011;3204;42.698;23.298;2023-02-18T17:32:43;11.90;;;8.23;;
6342;SDS011;3204;42.698;23.298;2023-02-18T17:35:17;11.65;;;8.73;;
6342;SDS011;3204;42.698;23.298;2023-02-18T17:37:44;15.80;;;8.52;;